In Rescue
 
Open Full Screen Window  High Contrast Mode
Wind Gusting 00 knots
05
April 19, 2021 8:37 PM CDT
Weather Information
Wind Direction
  320 °
Wind Speed
  05 kt (6 mph)
Wind Gust
  00 kt (0 mph)
Altimeter
30.06 in
Visibility
10 SM
Temperature
02° C
36° F
Dewpoint
-10° C
14° F
Humidity
41%
1hr Rain Fall
00.00 in.
24hr Rain Fall
00.00 in.
Sky Condition
Overcast @ 8,000 ft
VFR

METAR KGYL 200137Z AUTO 32005KT 10SM OVC080 02/M10 A3006 RMK AO2 T00221103

FAA Disclaimer: The data displayed is for advisory purposes only and is not to be used for flight planning or operations.